Time;durP1;ratioP1;P1;durP2;ratioP2;P2;SDS_P1;SDS_P2;PMS_P1;PMS_P2;Temp;Humidity;BMP_temperature;BMP_pressure;BME280_temperature;BME280_humidity;BME280_pressure;Samples;Min_cycle;Max_cycle;Signal;HPM_P1;HPM_P2
2023/03/30 00:00:56;;;;;;;23.53;9.03;;;;;;;-147.16;42.56;77234.25;5066250;23;20270;-68
2023/03/30 00:03:25;;;;;;;22.57;7.80;;;;;;;-147.16;42.72;77238.31;5062157;23;20208;-66
2023/03/30 00:05:56;;;;;;;26.90;8.50;;;;;;;-147.16;43.20;77242.34;5036204;23;20214;-67
2023/03/30 00:08:27;;;;;;;18.97;8.03;;;;;;;-147.16;43.50;77254.50;5065670;23;25312;-69
2023/03/30 00:11:05;;;;;;;26.97;8.50;;;;;;;-147.16;43.28;77248.44;5052441;23;20218;-69
2023/03/30 00:13:34;;;;;;;20.37;7.43;;;;;;;-147.16;43.18;77238.31;5005390;23;21286;-66
2023/03/30 00:16:01;;;;;;;22.33;8.17;;;;;;;-147.16;43.42;77236.28;5032893;23;20201;-67
2023/03/30 00:18:32;;;;;;;23.93;8.10;;;;;;;-147.16;43.55;77234.25;5008438;23;20384;-67
2023/03/30 00:21:01;;;;;;;25.53;8.33;;;;;;;-147.16;43.90;77240.31;5022058;23;20237;-69
2023/03/30 00:23:28;;;;;;;21.83;8.00;;;;;;;-147.16;43.48;77228.19;5035952;23;21242;-66
2023/03/30 00:25:55;;;;;;;19.00;7.33;;;;;;;-147.16;43.59;77218.06;5028739;23;22312;-68
2023/03/30 00:28:22;;;;;;;22.77;8.27;;;;;;;-147.16;43.82;77216.03;5019635;23;20631;-66
2023/03/30 00:30:51;;;;;;;18.63;7.60;;;;;;;-147.16;43.78;77218.06;5064717;23;20404;-68
2023/03/30 00:33:19;;;;;;;22.90;7.77;;;;;;;-147.16;44.01;77220.06;5035657;23;20204;-70
2023/03/30 00:35:59;;;;;;;20.37;8.23;;;;;;;-147.16;43.86;77205.91;5035012;23;20222;-68
2023/03/30 00:38:26;;;;;;;20.87;7.77;;;;;;;-147.16;44.35;77207.94;5063243;23;20253;-66
2023/03/30 00:40:54;;;;;;;21.73;7.30;;;;;;;-147.16;44.29;77201.84;5055888;23;20226;-67
2023/03/30 00:43:21;;;;;;;17.47;7.23;;;;;;;-147.16;44.32;77216.03;5056075;23;21852;-67
2023/03/30 00:45:48;;;;;;;20.43;7.63;;;;;;;-147.16;44.56;77197.81;5049664;23;25545;-66
2023/03/30 00:48:21;;;;;;;22.10;8.37;;;;;;;-147.16;44.09;77195.78;5039122;23;22265;-67
2023/03/30 00:50:52;;;;;;;22.27;7.80;;;;;;;-147.16;44.63;77218.06;5044023;23;20237;-65
2023/03/30 00:53:29;;;;;;;21.23;8.10;;;;;;;-147.16;44.69;77209.97;5050505;23;21723;-70
2023/03/30 00:55:56;;;;;;;20.53;7.70;;;;;;;-147.16;44.65;77201.84;5018238;23;20205;-68
2023/03/30 00:58:25;;;;;;;19.33;8.10;;;;;;;-147.16;44.44;77197.81;5005512;23;20212;-67
2023/03/30 01:00:51;;;;;;;21.80;7.80;;;;;;;-147.16;44.63;77181.59;5009076;23;20631;-68
2023/03/30 01:03:23;;;;;;;21.70;7.13;;;;;;;-147.16;44.92;77187.69;5030839;23;20289;-67
2023/03/30 01:05:51;;;;;;;19.70;7.37;;;;;;;-147.16;44.97;77189.72;5050743;23;21198;-68
2023/03/30 01:08:18;;;;;;;17.23;7.27;;;;;;;-147.16;44.84;77175.53;5029028;23;22042;-66
2023/03/30 01:10:45;;;;;;;24.93;8.30;;;;;;;-147.16;44.91;77177.56;5058885;23;20208;-67
2023/03/30 01:13:13;;;;;;;23.23;7.53;;;;;;;-147.16;45.43;77179.59;5062757;23;21312;-67
2023/03/30 01:16:09;;;;;;;17.50;7.40;;;;;;;-147.16;45.23;77175.53;5060432;23;23231;-67
2023/03/30 01:18:47;;;;;;;25.37;7.37;;;;;;;-147.16;45.85;77191.72;5070836;23;20206;-67
2023/03/30 01:21:32;;;;;;;22.17;7.90;;;;;;;-147.16;45.85;77183.63;5043076;23;22083;-69
2023/03/30 01:24:34;;;;;;;20.73;7.67;;;;;;;-147.16;45.86;77191.72;5055636;23;25239;-65
2023/03/30 01:27:18;;;;;;;18.87;7.93;;;;;;;-147.16;45.77;77179.59;5087989;23;21001;-68
2023/03/30 01:30:20;;;;;;;23.93;9.13;;;;;;;-147.16;46.47;77187.69;5060258;23;21183;-68
2023/03/30 01:32:55;;;;;;;20.30;8.50;;;;;;;-147.16;46.37;77193.75;5008938;23;21235;-66
2023/03/30 01:35:35;;;;;;;27.27;8.00;;;;;;;-147.16;46.47;77185.66;5022627;23;20669;-67
2023/03/30 01:38:07;;;;;;;20.27;7.93;;;;;;;-147.16;46.24;77185.66;5034804;23;21397;-70
2023/03/30 01:41:05;;;;;;;20.73;7.90;;;;;;;-147.16;46.52;77181.59;5036799;23;20713;-69
2023/03/30 01:43:43;;;;;;;23.37;7.60;;;;;;;-147.16;46.47;77177.56;5068194;23;20203;-68
2023/03/30 01:46:23;;;;;;;23.47;8.10;;;;;;;-147.16;46.95;77177.56;5047781;23;20203;-67
2023/03/30 01:49:04;;;;;;;23.07;8.23;;;;;;;-147.16;47.10;77185.66;5056681;23;20224;-69
2023/03/30 01:51:44;;;;;;;26.90;8.60;;;;;;;-147.16;47.13;77177.56;5047644;23;21099;-67
2023/03/30 01:54:21;;;;;;;22.83;8.70;;;;;;;-147.16;47.23;77177.56;5027047;23;20200;-66
2023/03/30 01:56:55;;;;;;;24.53;8.43;;;;;;;-147.16;47.18;77173.50;5041326;23;20201;-67
2023/03/30 01:59:30;;;;;;;22.43;8.03;;;;;;;-147.16;47.20;77167.44;5033505;23;20541;-69
2023/03/30 02:02:02;;;;;;;24.67;7.87;;;;;;;-147.16;47.31;77183.63;5039712;23;20200;-69
2023/03/30 02:04:33;;;;;;;22.20;7.87;;;;;;;-147.16;47.63;77177.56;5035673;23;20639;-68
2023/03/30 02:07:05;;;;;;;25.40;8.60;;;;;;;-147.16;47.97;77187.69;5055468;23;21469;-68
2023/03/30 02:09:32;;;;;;;20.77;8.07;;;;;;;-147.16;47.45;77173.50;5070042;23;20227;-65
2023/03/30 02:11:59;;;;;;;26.70;8.70;;;;;;;-147.16;47.65;77175.53;5032805;23;22220;-67
2023/03/30 02:14:29;;;;;;;23.70;7.77;;;;;;;-147.16;47.82;77173.50;5060602;23;20215;-67
2023/03/30 02:17:05;;;;;;;23.73;8.57;;;;;;;-147.16;47.79;77171.47;5038812;23;26124;-66
2023/03/30 02:19:32;;;;;;;22.17;7.97;;;;;;;-147.16;48.23;77167.44;5042816;23;20210;-69
2023/03/30 02:22:00;;;;;;;21.57;7.77;;;;;;;-147.16;48.31;77175.53;5073173;23;20643;-66
2023/03/30 02:24:27;;;;;;;29.60;8.30;;;;;;;-147.16;48.20;77169.47;5069384;23;20278;-68
2023/03/30 02:26:54;;;;;;;29.77;8.70;;;;;;;-147.16;48.89;77185.66;5053458;23;20259;-69
2023/03/30 02:29:21;;;;;;;21.80;8.07;;;;;;;-147.16;48.82;77171.47;5051094;23;22292;-67
2023/03/30 02:31:49;;;;;;;21.83;8.00;;;;;;;-147.16;48.75;77169.47;5038329;23;20634;-69
2023/03/30 02:34:28;;;;;;;21.90;8.40;;;;;;;-147.16;48.60;77173.50;5034486;23;22858;-68
2023/03/30 02:37:23;;;;;;;21.27;8.40;;;;;;;-147.16;48.54;77157.31;5047381;23;20214;-67
2023/03/30 02:39:54;;;;;;;29.67;8.90;;;;;;;-147.16;48.72;77157.31;5039133;23;20267;-67
2023/03/30 02:42:50;;;;;;;20.90;7.90;;;;;;;-147.16;48.81;77157.31;5046638;23;20947;-68
2023/03/30 02:45:38;;;;;;;24.23;7.73;;;;;;;-147.16;49.21;77171.47;5073664;23;20479;-68
2023/03/30 02:48:26;;;;;;;18.63;8.30;;;;;;;-147.16;49.40;77155.28;5049796;23;21192;-67
2023/03/30 02:51:21;;;;;;;24.07;7.77;;;;;;;-147.16;49.07;77151.25;5044383;23;20378;-68
2023/03/30 02:54:28;;;;;;;22.50;8.37;;;;;;;-147.16;49.18;77141.13;5029961;23;20212;-68
2023/03/30 02:57:07;;;;;;;25.03;8.63;;;;;;;-147.16;49.40;77147.19;5047384;23;20232;-66
2023/03/30 02:59:36;;;;;;;21.73;7.97;;;;;;;-147.16;49.67;77161.38;5038351;23;20210;-68
2023/03/30 03:02:13;;;;;;;26.67;8.47;;;;;;;-147.16;49.45;77145.16;5043585;23;20689;-68
2023/03/30 03:04:42;;;;;;;23.67;8.20;;;;;;;-147.16;49.36;77143.13;5045353;23;22267;-67
2023/03/30 03:07:10;;;;;;;18.57;8.00;;;;;;;-147.16;49.47;77149.22;5045307;23;20202;-66
2023/03/30 03:09:37;;;;;;;21.00;8.20;;;;;;;-147.16;50.05;77153.25;5066391;23;20215;-66
2023/03/30 03:12:04;;;;;;;24.20;8.20;;;;;;;-147.16;49.77;77141.13;5047378;23;20308;-65
2023/03/30 03:14:30;;;;;;;21.63;8.13;;;;;;;-147.16;49.73;77141.13;5046057;23;20205;-68
2023/03/30 03:16:57;;;;;;;25.13;8.57;;;;;;;-147.16;50.17;77149.22;5043680;23;21164;-67
2023/03/30 03:19:23;;;;;;;22.90;8.93;;;;;;;-147.16;50.18;77133.00;5056556;23;20204;-66
2023/03/30 03:21:50;;;;;;;24.23;8.07;;;;;;;-147.16;49.93;77133.00;5031007;23;21784;-68
2023/03/30 03:24:17;;;;;;;22.90;7.83;;;;;;;-147.16;50.58;77133.00;5051578;23;20798;-65
2023/03/30 03:26:44;;;;;;;21.60;9.03;;;;;;;-147.16;50.59;77149.22;5050564;23;20235;-66
2023/03/30 03:29:11;;;;;;;22.87;8.60;;;;;;;-147.16;50.50;77137.06;5051298;23;20375;-69
2023/03/30 03:31:37;;;;;;;26.23;8.73;;;;;;;-147.16;51.07;77143.13;5043753;23;20223;-66
2023/03/30 03:34:04;;;;;;;21.40;8.30;;;;;;;-147.16;51.33;77147.19;5056884;23;20219;-67
2023/03/30 03:36:31;;;;;;;24.30;8.77;;;;;;;-147.16;50.97;77149.22;5061705;23;20365;-67
2023/03/30 03:38:57;;;;;;;23.93;9.27;;;;;;;-147.16;51.13;77143.13;5056157;23;20208;-67
2023/03/30 03:41:25;;;;;;;22.97;9.30;;;;;;;-147.16;51.91;77161.38;5067090;23;20333;-66
2023/03/30 03:43:51;;;;;;;26.17;9.60;;;;;;;-147.16;52.02;77155.28;5063798;23;20235;-66
2023/03/30 03:46:18;;;;;;;25.27;8.80;;;;;;;-147.16;51.77;77151.25;5044355;23;20640;-66
2023/03/30 03:48:45;;;;;;;24.87;9.60;;;;;;;-147.16;52.08;77157.31;5058247;23;20206;-68
2023/03/30 03:51:11;;;;;;;26.33;9.27;;;;;;;-147.16;51.99;77157.31;5044689;23;20212;-66
2023/03/30 03:53:38;;;;;;;23.70;8.77;;;;;;;-147.16;52.03;77145.16;5046475;23;20620;-67
2023/03/30 03:56:04;;;;;;;25.47;9.63;;;;;;;-147.16;52.27;77145.16;5035020;23;20261;-68
2023/03/30 03:58:31;;;;;;;26.43;8.60;;;;;;;-147.16;52.23;77153.25;5042171;23;21773;-65
2023/03/30 04:00:59;;;;;;;25.53;8.77;;;;;;;-147.16;52.12;77149.22;5036970;23;20201;-67
2023/03/30 04:03:26;;;;;;;27.83;9.97;;;;;;;-147.16;51.95;77137.06;5038456;23;21212;-66
2023/03/30 04:05:57;;;;;;;29.10;9.43;;;;;;;-147.16;52.13;77137.06;5038869;23;25289;-66
2023/03/30 04:08:24;;;;;;;25.57;9.20;;;;;;;-147.16;51.92;77137.06;5069521;23;20204;-66
2023/03/30 04:10:51;;;;;;;27.13;9.00;;;;;;;-147.16;51.84;77128.97;5029766;23;20215;-66
2023/03/30 04:13:17;;;;;;;23.37;9.63;;;;;;;-147.16;51.81;77128.97;5038932;23;20204;-67
2023/03/30 04:15:44;;;;;;;24.73;9.20;;;;;;;-147.16;52.17;77131.00;5053277;23;20212;-65
2023/03/30 04:18:10;;;;;;;23.93;9.20;;;;;;;-147.16;52.36;77133.00;5044676;23;21531;-68
2023/03/30 04:20:37;;;;;;;28.77;9.17;;;;;;;-147.16;52.23;77124.91;5042357;23;20216;-66
2023/03/30 04:23:03;;;;;;;28.13;9.23;;;;;;;-147.16;51.90;77120.88;5034982;23;20278;-65
2023/03/30 04:25:30;;;;;;;26.80;9.57;;;;;;;-147.16;52.49;77124.91;5029395;23;25758;-69
2023/03/30 04:27:56;;;;;;;21.40;9.00;;;;;;;-147.16;52.46;77116.81;5040430;23;20327;-66
2023/03/30 04:30:23;;;;;;;21.60;8.93;;;;;;;-147.16;52.31;77108.72;5069268;23;21806;-66
2023/03/30 04:33:23;;;;;;;24.80;9.07;;;;;;;-147.16;52.41;77092.53;5060716;23;20207;-68
2023/03/30 04:35:42;;;;;;;28.23;10.20;;;;;;;-147.16;52.53;77094.53;5072650;23;20698;-67
2023/03/30 04:38:09;;;;;;;25.60;8.40;;;;;;;-147.16;52.70;77086.44;5070101;23;20224;-67
2023/03/30 04:40:35;;;;;;;26.43;9.00;;;;;;;-147.16;52.05;77080.38;5068826;23;20488;-67
2023/03/30 04:43:05;;;;;;;32.73;10.37;;;;;;;-147.16;52.16;77086.44;5096712;23;20203;-64
2023/03/30 04:45:32;;;;;;;28.97;9.00;;;;;;;-147.16;52.46;77076.31;5077443;23;20204;-67
2023/03/30 04:47:59;;;;;;;27.33;9.30;;;;;;;-147.16;52.65;77076.31;5082052;23;20212;-67
2023/03/30 04:50:26;;;;;;;31.33;10.20;;;;;;;-147.16;52.57;77082.41;5079483;23;20872;-67
2023/03/30 04:52:52;;;;;;;31.37;9.67;;;;;;;-147.16;52.74;77076.31;5076356;23;21977;-66
2023/03/30 04:55:19;;;;;;;22.40;9.67;;;;;;;-147.16;52.97;77068.22;5111816;23;20496;-67
2023/03/30 04:57:45;;;;;;;26.53;9.10;;;;;;;-147.16;52.51;77050.00;5077399;23;20375;-67
2023/03/30 05:00:13;;;;;;;31.70;9.33;;;;;;;-147.16;52.47;77054.06;5091363;23;22182;-68
2023/03/30 05:02:39;;;;;;;25.70;10.00;;;;;;;-147.16;52.72;77060.13;5076674;23;20215;-67
2023/03/30 05:05:06;;;;;;;24.60;9.57;;;;;;;-147.16;52.80;77060.13;5080642;23;21742;-68
2023/03/30 05:07:33;;;;;;;27.00;9.70;;;;;;;-147.16;52.61;77041.91;5063282;23;20456;-67
2023/03/30 05:10:00;;;;;;;33.23;9.57;;;;;;;-147.16;52.91;77037.84;5079056;23;20218;-69
2023/03/30 05:12:26;;;;;;;22.27;9.40;;;;;;;-147.16;52.86;77021.66;5078131;23;20258;-67
2023/03/30 05:14:53;;;;;;;24.57;9.53;;;;;;;-147.16;52.61;77023.69;5071730;23;20679;-66
2023/03/30 05:17:19;;;;;;;26.80;9.53;;;;;;;-147.16;52.43;77003.44;5072986;23;20208;-68
2023/03/30 05:19:46;;;;;;;28.43;9.50;;;;;;;-147.16;52.48;77015.59;5091126;23;20765;-66
2023/03/30 05:22:14;;;;;;;31.53;9.73;;;;;;;-147.16;52.36;77015.59;5047142;23;20260;-68
2023/03/30 05:24:40;;;;;;;30.93;9.83;;;;;;;-147.16;52.82;77013.56;5089023;23;20203;-66
2023/03/30 05:27:07;;;;;;;28.10;10.07;;;;;;;-147.16;52.84;77013.56;5093445;23;20204;-66
2023/03/30 05:29:34;;;;;;;24.57;10.07;;;;;;;-147.16;53.08;77009.50;5078448;23;20203;-66
2023/03/30 05:32:01;;;;;;;27.90;10.63;;;;;;;-147.16;53.45;77011.53;5063587;23;22050;-67
2023/03/30 05:34:29;;;;;;;33.77;10.27;;;;;;;-147.16;53.50;77009.50;5067350;23;22513;-68
2023/03/30 05:36:56;;;;;;;29.53;10.20;;;;;;;-147.16;53.08;77007.47;5070737;23;20213;-65
2023/03/30 05:39:22;;;;;;;29.63;10.63;;;;;;;-147.16;53.03;77001.41;5068850;23;20638;-68
2023/03/30 05:41:49;;;;;;;27.17;10.33;;;;;;;-147.16;53.21;77003.44;5067884;23;20215;-66
2023/03/30 05:44:17;;;;;;;29.43;10.20;;;;;;;-147.16;54.14;77011.53;5072211;23;20211;-67
2023/03/30 05:46:46;;;;;;;26.63;10.43;;;;;;;-147.16;53.40;77003.44;5060832;23;24785;-67
2023/03/30 05:49:13;;;;;;;30.10;10.77;;;;;;;-147.16;53.42;76995.34;5041903;23;20219;-66
2023/03/30 05:51:40;;;;;;;28.77;10.40;;;;;;;-147.16;53.70;77003.44;5100386;23;20289;-67
2023/03/30 05:54:10;;;;;;;29.50;10.83;;;;;;;-147.16;53.59;76977.13;5080633;23;20223;-68
2023/03/30 05:56:36;;;;;;;31.73;11.30;;;;;;;-147.16;52.90;76958.88;5040188;23;20210;-69
2023/03/30 05:59:04;;;;;;;27.87;10.70;;;;;;;-147.16;53.29;76964.97;5075545;23;21740;-64
2023/03/30 06:01:30;;;;;;;27.83;10.43;;;;;;;-147.16;53.20;76964.97;5060951;23;20358;-70
2023/03/30 06:03:58;;;;;;;29.97;10.43;;;;;;;-147.16;52.89;76964.97;5055398;23;20210;-65
2023/03/30 06:06:26;;;;;;;37.63;11.67;;;;;;;-147.16;53.76;76981.16;5042141;23;20378;-69
2023/03/30 06:08:52;;;;;;;33.57;11.23;;;;;;;-147.16;53.62;76969.00;5053063;23;20208;-69
2023/03/30 06:11:19;;;;;;;28.50;11.23;;;;;;;-147.16;53.04;76948.78;5056273;23;20212;-69
2023/03/30 06:13:45;;;;;;;29.23;10.83;;;;;;;-147.16;53.55;76946.75;5064340;23;20212;-67
2023/03/30 06:16:12;;;;;;;30.43;11.27;;;;;;;-147.16;53.83;76946.75;5072347;23;20204;-68
2023/03/30 06:18:39;;;;;;;36.53;11.77;;;;;;;-147.16;53.23;76936.63;5059612;23;20246;-69
2023/03/30 06:21:05;;;;;;;30.80;10.67;;;;;;;-147.16;53.27;76920.41;5066754;23;20208;-67
2023/03/30 06:23:34;;;;;;;30.50;10.80;;;;;;;-147.16;53.15;76920.41;5067116;23;20211;-67
2023/03/30 06:26:01;;;;;;;32.77;11.23;;;;;;;-147.16;53.30;76910.31;5064393;23;20282;-70
2023/03/30 06:28:28;;;;;;;27.40;10.90;;;;;;;-147.16;52.27;76873.84;5057269;23;22092;-67
2023/03/30 06:30:55;;;;;;;28.03;11.37;;;;;;;-147.16;52.03;76847.53;5065180;23;20203;-67
2023/03/30 06:33:22;;;;;;;34.80;10.67;;;;;;;-147.16;51.07;76813.13;5053965;23;20677;-68
2023/03/30 06:35:50;;;;;;;29.83;10.97;;;;;;;-147.16;50.48;76794.91;5059147;23;20212;-67
2023/03/30 06:38:17;;;;;;;24.63;10.33;;;;;;;-147.16;49.91;76768.56;5070236;23;20215;-67
2023/03/30 06:40:44;;;;;;;26.60;9.87;;;;;;;-147.16;50.19;76768.56;5057496;23;20212;-68
2023/03/30 06:43:17;;;;;;;30.10;10.63;;;;;;;-147.16;49.35;76756.44;5038979;23;21579;-69
2023/03/30 06:45:56;;;;;;;26.57;9.97;;;;;;;-147.16;49.46;76754.41;5042825;23;20209;-67
2023/03/30 06:48:23;;;;;;;26.40;10.53;;;;;;;-147.16;49.81;76764.53;5086213;23;20320;-68
2023/03/30 06:50:51;;;;;;;32.87;10.30;;;;;;;-147.16;50.30;76768.56;5061749;23;20211;-69
2023/03/30 06:53:18;;;;;;;31.93;11.13;;;;;;;-147.16;50.10;76758.47;5045565;23;21633;-69
2023/03/30 06:55:53;;;;;;;30.60;10.73;;;;;;;-147.16;49.71;76752.38;5061188;23;20199;-68
2023/03/30 06:58:20;;;;;;;30.90;10.67;;;;;;;-147.16;49.32;76754.41;5081630;23;20272;-68
2023/03/30 07:00:47;;;;;;;33.80;11.17;;;;;;;-147.16;49.78;76760.47;5057542;23;20208;-69
2023/03/30 07:03:17;;;;;;;29.30;10.40;;;;;;;-147.16;49.99;76760.47;5069467;23;20384;-68
2023/03/30 07:05:48;;;;;;;26.10;10.50;;;;;;;-147.16;50.46;76760.47;5062279;23;20223;-68
2023/03/30 07:08:16;;;;;;;27.57;10.50;;;;;;;-147.16;50.11;76752.38;5066064;23;20204;-67
2023/03/30 07:10:42;;;;;;;29.93;11.17;;;;;;;-147.16;50.50;76760.47;5052295;23;20220;-65
2023/03/30 07:13:09;;;;;;;23.63;9.97;;;;;;;-147.16;50.62;76764.53;5052027;23;26119;-68
2023/03/30 07:15:35;;;;;;;29.53;10.57;;;;;;;-147.16;50.65;76760.47;5040218;23;21680;-66
2023/03/30 07:18:03;;;;;;;26.27;11.37;;;;;;;-147.16;50.35;76752.38;5064202;23;21047;-64
2023/03/30 07:20:30;;;;;;;27.70;11.10;;;;;;;-147.16;50.42;76752.38;5064382;23;20659;-63
2023/03/30 07:22:57;;;;;;;35.93;11.93;;;;;;;-147.16;50.48;76744.28;5060409;23;20319;-66
2023/03/30 07:25:23;;;;;;;29.00;11.53;;;;;;;-147.16;51.20;76768.56;5068685;23;20203;-63
2023/03/30 07:27:50;;;;;;;28.13;11.33;;;;;;;-147.16;50.98;76758.47;5077911;23;20227;-65
2023/03/30 07:30:16;;;;;;;27.60;11.07;;;;;;;-147.16;50.53;76750.34;5041808;23;20207;-63
2023/03/30 07:32:51;;;;;;;28.13;10.90;;;;;;;-147.16;50.56;76748.34;5021911;23;20713;-66
2023/03/30 07:35:21;;;;;;;24.10;10.13;;;;;;;-147.16;50.69;76746.31;5056711;23;20984;-64
2023/03/30 07:37:48;;;;;;;24.87;10.33;;;;;;;-147.16;50.56;76732.13;5069164;23;21129;-66
2023/03/30 07:40:17;;;;;;;35.87;11.57;;;;;;;-147.16;50.29;76717.97;5049884;23;21162;-66
2023/03/30 07:42:44;;;;;;;30.33;10.80;;;;;;;-147.16;50.49;76724.03;5079238;23;21405;-63
2023/03/30 07:45:11;;;;;;;28.40;10.80;;;;;;;-147.16;50.38;76715.94;5078821;23;21678;-66
2023/03/30 07:47:41;;;;;;;31.17;11.67;;;;;;;-147.16;50.64;76709.88;5040894;23;20200;-64
2023/03/30 07:50:09;;;;;;;30.30;11.60;;;;;;;-147.16;49.86;76693.66;5078074;23;20275;-64
2023/03/30 07:52:36;;;;;;;26.63;10.83;;;;;;;-147.16;50.34;76689.63;5057516;23;21706;-68
2023/03/30 07:55:03;;;;;;;28.07;10.60;;;;;;;-147.16;50.05;76699.75;5071349;23;20208;-70
2023/03/30 07:57:30;;;;;;;24.80;11.17;;;;;;;-147.16;50.16;76679.50;5044838;23;20215;-64
2023/03/30 07:59:57;;;;;;;28.20;10.80;;;;;;;-147.16;50.06;76659.25;5082449;23;20219;-65
2023/03/30 08:02:24;;;;;;;35.53;10.80;;;;;;;-147.16;49.90;76653.19;5063533;23;20363;-64
2023/03/30 08:04:51;;;;;;;26.10;10.53;;;;;;;-147.16;49.85;76643.06;5050431;23;23568;-64
2023/03/30 08:07:18;;;;;;;25.60;10.10;;;;;;;-147.16;49.68;76620.78;5054640;23;20208;-66
2023/03/30 08:09:45;;;;;;;31.80;11.53;;;;;;;-147.16;48.94;76600.53;5035737;23;20303;-64
2023/03/30 08:12:11;;;;;;;27.57;10.43;;;;;;;-147.16;48.65;76574.22;5029933;23;21188;-66
2023/03/30 08:14:38;;;;;;;27.17;10.90;;;;;;;-147.16;48.85;76578.28;5048636;23;20405;-68
2023/03/30 08:17:05;;;;;;;27.67;10.50;;;;;;;-147.16;48.67;76590.41;5044318;23;21778;-63
2023/03/30 08:19:32;;;;;;;29.30;10.47;;;;;;;-147.16;48.94;76582.31;5050817;23;20207;-65
2023/03/30 08:22:00;;;;;;;34.03;11.13;;;;;;;-147.16;48.85;76578.28;5035149;23;20287;-63
2023/03/30 08:24:27;;;;;;;24.70;10.40;;;;;;;-147.16;48.96;76582.31;5079168;23;20259;-64
2023/03/30 08:26:53;;;;;;;26.47;10.10;;;;;;;-147.16;48.81;76582.31;5076451;23;20501;-63
2023/03/30 08:29:20;;;;;;;25.33;9.97;;;;;;;-147.16;48.97;76584.34;5079078;23;20311;-64
2023/03/30 08:31:47;;;;;;;28.43;10.37;;;;;;;-147.16;49.45;76584.34;5055350;23;20221;-66
2023/03/30 08:34:14;;;;;;;30.10;11.03;;;;;;;-147.16;49.91;76612.69;5059730;23;22894;-65
2023/03/30 08:36:41;;;;;;;25.00;10.37;;;;;;;-147.16;49.93;76602.56;5044965;23;20207;-68
2023/03/30 08:39:09;;;;;;;27.13;10.73;;;;;;;-147.16;50.49;76610.66;5959940;23;20274;-63
2023/03/30 08:41:47;;;;;;;28.67;11.00;;;;;;;-147.16;49.98;76584.34;6003765;23;21763;-65
2023/03/30 08:44:30;;;;;;;32.83;10.90;;;;;;;-147.16;50.20;76582.31;5046099;23;20218;-62
2023/03/30 08:46:57;;;;;;;27.23;11.13;;;;;;;-147.16;50.20;76574.22;5046413;23;20204;-63
2023/03/30 08:49:25;;;;;;;23.10;10.77;;;;;;;-147.16;49.94;76562.09;5046669;23;20216;-61
2023/03/30 08:51:53;;;;;;;29.13;10.50;;;;;;;-147.16;50.38;76551.97;5045142;23;20276;-62
2023/03/30 08:54:21;;;;;;;27.63;10.33;;;;;;;-147.16;50.15;76551.97;5038831;23;20263;-65
2023/03/30 08:56:59;;;;;;;25.23;10.77;;;;;;;-147.16;50.44;76564.09;5041714;23;22978;-64
2023/03/30 08:59:32;;;;;;;28.70;10.90;;;;;;;-147.16;50.86;76568.16;5015042;23;20209;-62
2023/03/30 09:02:03;;;;;;;22.63;10.57;;;;;;;-147.16;51.20;76566.13;5066574;23;20280;-62
2023/03/30 09:04:56;;;;;;;24.37;10.57;;;;;;;-147.16;51.07;76545.88;5034434;23;20320;-63
2023/03/30 09:07:24;;;;;;;24.97;10.60;;;;;;;-147.16;50.92;76553.97;5049167;23;20199;-63
2023/03/30 09:09:51;;;;;;;25.10;10.40;;;;;;;-147.16;51.07;76566.13;5047381;23;20204;-65
2023/03/30 09:12:36;;;;;;;25.87;10.63;;;;;;;-147.16;51.90;76578.28;5074326;23;20215;-65
2023/03/30 09:15:19;;;;;;;21.73;10.53;;;;;;;-147.16;52.33;76578.28;5021162;23;21291;-66
2023/03/30 09:18:03;;;;;;;27.33;11.43;;;;;;;-147.16;52.00;76558.03;5058026;23;20205;-64
2023/03/30 09:20:32;;;;;;;30.80;10.97;;;;;;;-147.16;51.59;76543.84;5059373;23;20960;-66
2023/03/30 09:23:00;;;;;;;28.33;11.47;;;;;;;-147.16;51.59;76543.84;5039580;23;21819;-66
2023/03/30 09:25:31;;;;;;;28.70;11.43;;;;;;;-147.16;51.81;76535.75;5050119;23;20211;-67
2023/03/30 09:28:01;;;;;;;35.27;11.53;;;;;;;-147.16;51.22;76503.38;5057423;23;20394;-65
2023/03/30 09:30:38;;;;;;;25.07;11.50;;;;;;;-147.16;50.94;76489.19;5088451;23;21705;-62
2023/03/30 09:33:13;;;;;;;28.37;11.43;;;;;;;-147.16;50.48;76454.78;5030518;23;21111;-61
2023/03/30 09:35:43;;;;;;;23.77;11.00;;;;;;;-147.16;50.25;76448.72;5041498;23;20378;-63
2023/03/30 09:38:11;;;;;;;25.30;11.40;;;;;;;-147.16;49.45;76428.47;5075312;23;20696;-64
2023/03/30 09:40:59;;;;;;;32.80;11.67;;;;;;;-147.16;49.27;76434.53;5039087;23;20271;-62
2023/03/30 09:43:36;;;;;;;26.23;11.60;;;;;;;-147.16;49.80;76440.63;5065957;23;22940;-67
2023/03/30 09:46:06;;;;;;;28.07;11.30;;;;;;;-147.16;50.01;76414.28;5067844;23;22840;-66
2023/03/30 09:48:44;;;;;;;23.03;10.53;;;;;;;-147.16;49.43;76394.06;5051364;23;20218;-63
2023/03/30 09:51:26;;;;;;;32.00;11.27;;;;;;;-147.16;49.29;76369.75;5060481;23;20288;-65
2023/03/30 09:54:02;;;;;;;26.77;11.30;;;;;;;-147.16;48.39;76329.28;5124083;23;20209;-63
2023/03/30 09:56:45;;;;;;;27.83;12.37;;;;;;;-147.16;48.12;76315.09;5061918;23;20616;-62
2023/03/30 09:59:31;;;;;;;28.50;12.70;;;;;;;-147.16;48.13;76309.03;5067150;23;20264;-65
2023/03/30 10:02:15;;;;;;;28.27;11.70;;;;;;;-147.16;48.11;76270.56;5052685;23;20633;-61
2023/03/30 10:04:51;;;;;;;24.00;10.90;;;;;;;-147.16;48.04;76234.13;5070891;23;20440;-64
2023/03/30 10:07:34;;;;;;;25.80;10.57;;;;;;;-147.16;46.87;76199.72;5071703;23;20700;-61
2023/03/30 10:10:34;;;;;;;26.70;11.37;;;;;;;-147.16;47.28;76189.59;5064014;23;20383;-63
2023/03/30 10:13:13;;;;;;;23.43;10.07;;;;;;;-147.16;47.01;76157.22;5087796;23;27173;-67
2023/03/30 10:15:43;;;;;;;20.70;10.07;;;;;;;-147.16;46.52;76114.69;5070194;23;20212;-63
2023/03/30 10:18:41;;;;;;;22.57;9.90;;;;;;;-147.16;45.77;76116.72;5066702;23;20204;-62
2023/03/30 10:21:18;;;;;;;24.43;9.83;;;;;;;-147.16;46.44;76151.13;5084919;23;20474;-63
2023/03/30 10:23:58;;;;;;;24.10;9.60;;;;;;;-147.16;46.18;76104.56;5107875;23;20282;-63
2023/03/30 10:26:27;;;;;;;25.07;9.60;;;;;;;-147.16;45.91;76086.38;5067905;23;20205;-65
2023/03/30 10:28:55;;;;;;;19.40;10.03;;;;;;;-147.16;44.81;76070.16;5054291;23;20215;-64
2023/03/30 10:31:24;;;;;;;22.37;9.87;;;;;;;-147.16;44.53;76051.94;5073866;23;20286;-61
2023/03/30 10:33:58;;;;;;;18.70;8.83;;;;;;;-147.16;45.01;76049.94;5049913;23;20209;-64
2023/03/30 10:36:32;;;;;;;16.77;8.73;;;;;;;-147.16;45.07;76031.72;5032196;23;20300;-61
2023/03/30 10:39:11;;;;;;;20.57;9.80;;;;;;;-147.16;44.87;76031.72;5081694;23;21671;-64
2023/03/30 10:41:39;;;;;;;17.40;9.03;;;;;;;-147.16;44.30;76021.59;5088634;23;21956;-66
2023/03/30 10:44:17;;;;;;;26.37;9.63;;;;;;;-147.16;44.66;76005.41;5086440;23;20222;-63
2023/03/30 10:46:44;;;;;;;23.87;9.20;;;;;;;-147.16;44.20;75973.00;5129509;23;20215;-66
2023/03/30 10:49:38;;;;;;;18.97;8.87;;;;;;;-147.16;44.73;75991.22;5108975;23;20204;-61
2023/03/30 10:52:11;;;;;;;21.23;8.77;;;;;;;-147.16;44.09;75954.78;5123783;23;23617;-63
2023/03/30 10:54:44;;;;;;;21.10;9.07;;;;;;;-147.16;43.58;75950.75;5072873;23;20300;-66
2023/03/30 10:57:19;;;;;;;27.17;9.20;;;;;;;-147.16;43.80;75940.63;5042001;23;20208;-66
2023/03/30 11:00:17;;;;;;;17.33;7.80;;;;;;;-147.16;43.92;75954.78;5054109;23;20206;-65
2023/03/30 11:03:28;;;;;;;19.50;8.73;;;;;;;-147.16;43.69;75918.34;5165950;23;20205;-62
2023/03/30 11:06:23;;;;;;;17.77;8.70;;;;;;;-147.16;43.73;75938.59;5078648;23;20204;-63
2023/03/30 11:08:51;;;;;;;21.87;9.43;;;;;;;-147.16;43.79;75932.53;5065651;23;20208;-64
2023/03/30 11:11:22;;;;;;;18.70;8.70;;;;;;;-147.16;43.99;75950.75;5078437;23;20241;-67
2023/03/30 11:13:56;;;;;;;23.07;8.73;;;;;;;-147.16;44.46;75948.72;5061269;23;20207;-67
2023/03/30 11:16:44;;;;;;;20.20;9.10;;;;;;;-147.16;44.79;75938.59;5089899;23;20947;-64
2023/03/30 11:19:19;;;;;;;21.90;9.30;;;;;;;-147.16;44.74;75950.75;5057821;23;20244;-63
2023/03/30 11:21:57;;;;;;;18.97;8.90;;;;;;;-147.16;44.78;75944.66;5046301;23;20275;-64
2023/03/30 11:24:26;;;;;;;19.80;9.83;;;;;;;-147.16;44.67;75914.31;5041462;23;21466;-61
2023/03/30 11:27:16;;;;;;;20.43;8.93;;;;;;;-147.16;44.19;75890.03;5062009;23;20282;-67